^^
Station Historical Data
Daily Summary for May 11, 2017 Units:  English    Metric   Both
« Previous Day
Next Day »
Daily Weekly Monthly Yearly Custom
  High: Low: Average:
Temperature: 58.7 °F 44.7 °F 52 °F
Dew Point: 47.0 °F 37.8 °F 41.6 °F
Humidity: 89 % 51 % 69 %
Wind Speed: 4.1 mph 0.0 mph 0.2 mph
Wind Gust: 6.9 mph - -
Wind:- - ESE
Pressure: 30.05 in 29.94 in -
Precipitation: 0.00 in    
Historical Graphs
 
 
Tabular Data for May 11, 2017
Time Temperature Dew Point Pressure Wind Wind Speed Wind Gust Humidity Rainfall Rate (Hourly) solar Conditions
00:03 51.5 °F 40.5 °F 30.04 in Calm     66 % 0.00 in 0.0 W/m2 CLR
00:08 51.6 °F 41.4 °F 30.05 in Calm     68 % 0.00 in 0.0 W/m2 CLR
00:13 51.5 °F 41.3 °F 30.04 in Calm     68 % 0.00 in 0.0 W/m2 CLR
00:18 51.5 °F 41.7 °F 30.04 in Calm     69 % 0.00 in 0.0 W/m2 CLR
00:23 51.5 °F 41.7 °F 30.04 in Calm     69 % 0.00 in 0.0 W/m2 CLR
00:28 51.5 °F 42.0 °F 30.04 in Calm     70 % 0.00 in 0.0 W/m2 CLR
00:33 51.4 °F 42.3 °F 30.04 in Calm     71 % 0.00 in 0.0 W/m2 CLR
00:38 51.4 °F 42.3 °F 30.04 in Calm     71 % 0.00 in 0.0 W/m2 CLR
00:43 51.3 °F 42.2 °F 30.04 in Calm     71 % 0.00 in 0.0 W/m2 CLR
00:48 51.3 °F 42.6 °F 30.04 in Calm   2.3 mph 72 % 0.00 in 0.0 W/m2 CLR
00:53 51.2 °F 42.5 °F 30.05 in Calm   2.3 mph 72 % 0.00 in 0.0 W/m2 CLR
00:58 51.1 °F 42.4 °F 30.04 in Calm     72 % 0.00 in 0.0 W/m2 CLR
01:03 51.0 °F 42.3 °F 30.04 in Calm     72 % 0.00 in 0.0 W/m2 CLR
01:08 51.0 °F 42.3 °F 30.04 in Calm     72 % 0.00 in 0.0 W/m2 CLR
01:13 50.8 °F 42.1 °F 30.04 in Calm     72 % 0.00 in 0.0 W/m2 CLR
01:18 50.7 °F 42.4 °F 30.03 in Calm     73 % 0.00 in 0.0 W/m2 CLR
01:23 50.6 °F 42.3 °F 30.03 in Calm     73 % 0.00 in 0.0 W/m2 CLR
01:28 50.5 °F 42.2 °F 30.03 in Calm     73 % 0.00 in 0.0 W/m2 CLR
01:33 50.4 °F 42.1 °F 30.03 in Calm     73 % 0.00 in 0.0 W/m2 CLR
01:39 50.2 °F 41.9 °F 30.03 in Calm   2.3 mph 73 % 0.00 in 0.0 W/m2 CLR
01:44 49.8 °F 41.5 °F 30.03 in NNE 0.2 mph 2.3 mph 73 % 0.00 in 0.0 W/m2 CLR
01:49 49.4 °F 40.7 °F 30.03 in Calm   2.3 mph 72 % 0.00 in 0.0 W/m2 CLR
01:54 49.0 °F 40.4 °F 30.02 in NNE 0.1 mph 2.3 mph 72 % 0.00 in 0.0 W/m2 CLR
01:59 48.9 °F 40.3 °F 30.03 in Calm   3.5 mph 72 % 0.00 in 0.0 W/m2 CLR
02:04 48.7 °F 39.7 °F 30.03 in Calm   3.5 mph 71 % 0.00 in 0.0 W/m2 CLR
02:09 48.6 °F 39.6 °F 30.03 in Calm     71 % 0.00 in 0.0 W/m2 CLR
02:14 48.5 °F 39.9 °F 30.03 in Calm     72 % 0.00 in 0.0 W/m2 CLR
02:19 48.4 °F 39.8 °F 30.03 in Calm     72 % 0.00 in 0.0 W/m2 CLR
02:24 48.3 °F 39.7 °F 30.03 in Calm     72 % 0.00 in 0.0 W/m2 CLR
02:29 48.1 °F 39.5 °F 30.03 in Calm     72 % 0.00 in 0.0 W/m2 CLR
02:34 48.1 °F 39.9 °F 30.02 in Calm     73 % 0.00 in 0.0 W/m2 CLR
02:39 48.0 °F 39.8 °F 30.02 in Calm     73 % 0.00 in 0.0 W/m2 CLR
02:44 48.1 °F 39.9 °F 30.02 in Calm     73 % 0.00 in 0.0 W/m2 CLR
02:49 47.9 °F 39.7 °F 30.02 in Calm     73 % 0.00 in 0.0 W/m2 CLR
02:54 47.8 °F 39.6 °F 30.03 in Calm     73 % 0.00 in 0.0 W/m2 CLR
02:59 47.7 °F 39.8 °F 30.03 in Calm     74 % 0.00 in 0.0 W/m2 CLR
03:04 47.5 °F 39.6 °F 30.03 in Calm     74 % 0.00 in 0.0 W/m2 CLR
03:09 47.5 °F 39.6 °F 30.03 in Calm     74 % 0.00 in 0.0 W/m2 CLR
03:14 47.4 °F 39.9 °F 30.03 in Calm     75 % 0.00 in 0.0 W/m2 CLR
03:19 47.2 °F 39.7 °F 30.03 in Calm     75 % 0.00 in 0.0 W/m2 CLR
03:24 47.1 °F 39.6 °F 30.02 in Calm     75 % 0.00 in 0.0 W/m2 CLR
03:29 47.0 °F 39.8 °F 30.03 in Calm     76 % 0.00 in 0.0 W/m2 CLR
03:35 46.6 °F 39.4 °F 30.02 in Calm     76 % 0.00 in 0.0 W/m2 CLR
03:40 46.5 °F 39.7 °F 30.02 in Calm     77 % 0.00 in 0.0 W/m2 CLR
03:45 46.4 °F 39.6 °F 30.02 in Calm     77 % 0.00 in 0.0 W/m2 CLR
03:50 46.3 °F 39.5 °F 30.02 in Calm     77 % 0.00 in 0.0 W/m2 CLR
03:55 46.3 °F 39.8 °F 30.02 in Calm     78 % 0.00 in 0.0 W/m2 CLR
04:00 46.5 °F 40.0 °F 30.02 in Calm     78 % 0.00 in 0.0 W/m2 CLR
04:05 46.4 °F 39.6 °F 30.02 in Calm     77 % 0.00 in 0.0 W/m2 CLR
04:10 46.4 °F 39.6 °F 30.02 in Calm     77 % 0.00 in 0.0 W/m2 CLR
04:15 46.1 °F 39.3 °F 30.02 in Calm     77 % 0.00 in 0.0 W/m2 CLR
04:20 46.0 °F 39.5 °F 30.02 in Calm     78 % 0.00 in 0.0 W/m2 CLR
04:25 45.8 °F 39.3 °F 30.02 in Calm     78 % 0.00 in 0.0 W/m2 CLR
04:30 45.3 °F 38.8 °F 30.02 in Calm     78 % 0.00 in 0.0 W/m2 CLR
04:35 45.1 °F 39.0 °F 30.02 in Calm     79 % 0.00 in 0.0 W/m2 CLR
04:40 45.1 °F 39.0 °F 30.01 in Calm     79 % 0.00 in 0.0 W/m2 CLR
04:45 45.0 °F 38.9 °F 30.01 in Calm     79 % 0.00 in 0.0 W/m2 CLR
04:50 44.9 °F 38.8 °F 30.01 in Calm     79 % 0.00 in 0.0 W/m2 CLR
04:55 44.9 °F 38.8 °F 30.01 in Calm     79 % 0.00 in 0.0 W/m2 CLR
05:00 44.7 °F 38.6 °F 30.01 in Calm     79 % 0.00 in 0.0 W/m2 CLR
05:05 44.7 °F 38.6 °F 30.01 in Calm     79 % 0.00 in 0.0 W/m2 CLR
05:10 44.8 °F 38.7 °F 30.01 in Calm     79 % 0.00 in 0.0 W/m2 CLR
05:15 45.0 °F 38.9 °F 30.01 in Calm     79 % 0.00 in 0.0 W/m2 CLR
05:20 44.9 °F 38.8 °F 30.02 in Calm     79 % 0.00 in 0.0 W/m2 CLR
05:25 45.0 °F 38.9 °F 30.02 in Calm     79 % 0.00 in 0.0 W/m2 CLR
05:30 45.0 °F 38.9 °F 30.02 in Calm     79 % 0.00 in 0.0 W/m2 CLR
05:35 45.3 °F 39.2 °F 30.02 in Calm     79 % 0.00 in 0.0 W/m2 CLR
05:40 45.4 °F 38.9 °F 30.01 in Calm     78 % 0.00 in 0.0 W/m2 CLR
05:45 45.6 °F 38.8 °F 30.01 in Calm     77 % 0.00 in 0.0 W/m2 CLR
05:50 45.6 °F 38.8 °F 30.01 in Calm     77 % 0.00 in 7.0 W/m2 CLR
05:55 45.8 °F 38.7 °F 30.01 in Calm     76 % 0.00 in 9.0 W/m2 CLR
06:00 45.7 °F 38.6 °F 30.01 in Calm     76 % 0.00 in 11.0 W/m2 CLR
06:05 45.7 °F 38.2 °F 30.02 in Calm     75 % 0.00 in 12.0 W/m2 CLR
06:11 45.9 °F 38.1 °F 30.02 in Calm     74 % 0.00 in 16.0 W/m2 CLR
06:16 46.1 °F 38.3 °F 30.02 in Calm     74 % 0.00 in 21.0 W/m2 CLR
06:21 46.1 °F 38.6 °F 30.02 in Calm     75 % 0.00 in 28.0 W/m2 CLR
06:26 46.0 °F 38.5 °F 30.02 in Calm     75 % 0.00 in 35.0 W/m2 CLR
06:31 45.9 °F 38.4 °F 30.02 in Calm     75 % 0.00 in 40.0 W/m2 CLR
06:36 45.9 °F 38.4 °F 30.02 in Calm     75 % 0.00 in 47.0 W/m2 CLR
06:41 46.1 °F 38.6 °F 30.02 in Calm     75 % 0.00 in 51.0 W/m2 CLR
06:46 46.4 °F 38.9 °F 30.02 in Calm   1.2 mph 75 % 0.00 in 54.0 W/m2 CLR
06:51 46.7 °F 38.9 °F 30.02 in Calm   1.2 mph 74 % 0.00 in 62.0 W/m2 CLR
06:56 46.8 °F 38.2 °F 30.01 in Calm   2.3 mph 72 % 0.00 in 69.0 W/m2 CLR
07:01 47.1 °F 38.2 °F 30.01 in NNE 0.3 mph 3.5 mph 71 % 0.00 in 76.0 W/m2 CLR
07:06 47.5 °F 38.2 °F 30.01 in NNE 0.4 mph 3.5 mph 70 % 0.00 in 77.0 W/m2 CLR
07:11 47.5 °F 38.2 °F 30.01 in Calm   3.5 mph 70 % 0.00 in 79.0 W/m2 CLR
07:16 47.7 °F 38.0 °F 30.01 in NNE 0.2 mph 2.3 mph 69 % 0.00 in 81.0 W/m2 CLR
07:21 47.8 °F 38.1 °F 30.01 in NNE 0.4 mph 3.5 mph 69 % 0.00 in 83.0 W/m2 CLR
07:26 47.9 °F 38.2 °F 30.01 in Calm   3.5 mph 69 % 0.00 in 86.0 W/m2 CLR
07:31 48.0 °F 37.9 °F 30.01 in NNE 0.2 mph 2.3 mph 68 % 0.00 in 90.0 W/m2 CLR
07:36 48.2 °F 38.1 °F 30.01 in NNE 0.2 mph 3.5 mph 68 % 0.00 in 95.0 W/m2 CLR
07:41 48.2 °F 37.8 °F 30.01 in NNE 0.1 mph 3.5 mph 67 % 0.00 in 105.0 W/m2 CLR
07:46 48.3 °F 38.2 °F 30.01 in NNE 0.2 mph 2.3 mph 68 % 0.00 in 121.0 W/m2 CLR
07:51 48.4 °F 37.9 °F 30.00 in NE 0.1 mph 3.5 mph 67 % 0.00 in 121.0 W/m2 CLR
07:53 48.4 °F 37.9 °F 30.00 in Calm   3.5 mph 67 % 0.00 in 123.0 W/m2 CLR
07:59 48.6 °F 38.5 °F 30.00 in NNE 0.6 mph 3.5 mph 68 % 0.00 in 125.0 W/m2 CLR
08:04 48.8 °F 38.7 °F 30.01 in NNE 0.5 mph 3.5 mph 68 % 0.00 in 135.0 W/m2 CLR
08:09 49.0 °F 38.9 °F 30.01 in Calm   2.3 mph 68 % 0.00 in 148.0 W/m2 CLR
08:14 49.1 °F 39.0 °F 30.01 in Calm   2.3 mph 68 % 0.00 in 167.0 W/m2 CLR
08:19 49.1 °F 38.6 °F 30.01 in Calm     67 % 0.00 in 186.0 W/m2 CLR
08:24 49.3 °F 38.4 °F 30.01 in NNE 0.7 mph 3.5 mph 66 % 0.00 in 190.0 W/m2 CLR
08:29 49.5 °F 39.0 °F 30.01 in Calm   3.5 mph 67 % 0.00 in 200.0 W/m2 CLR
08:34 49.8 °F 39.3 °F 30.00 in Calm   3.5 mph 67 % 0.00 in 220.0 W/m2 CLR
08:39 49.8 °F 38.5 °F 30.00 in Calm   2.3 mph 65 % 0.00 in 241.0 W/m2 CLR
08:44 50.0 °F 38.7 °F 30.00 in Calm   2.3 mph 65 % 0.00 in 250.0 W/m2 CLR
08:46 50.1 °F 38.8 °F 30.00 in Calm   3.5 mph 65 % 0.00 in 253.0 W/m2 CLR
08:51 50.3 °F 39.0 °F 30.00 in Calm   3.5 mph 65 % 0.00 in 287.0 W/m2 CLR
08:56 50.6 °F 39.3 °F 30.00 in Calm   2.3 mph 65 % 0.00 in 295.0 W/m2 CLR
09:01 51.0 °F 39.6 °F 30.00 in NNE 1.5 mph 3.5 mph 65 % 0.00 in 276.0 W/m2 CLR
09:06 50.9 °F 38.7 °F 30.00 in NNE 0.2 mph 3.5 mph 63 % 0.00 in 267.0 W/m2 CLR
09:11 51.3 °F 39.9 °F 30.00 in NNE 2.3 mph 3.5 mph 65 % 0.00 in 262.0 W/m2 CLR
09:16 51.2 °F 39.0 °F 30.00 in NNE 2.5 mph 4.6 mph 63 % 0.00 in 288.0 W/m2 CLR
09:21 51.3 °F 39.5 °F 30.00 in North 2.0 mph 4.6 mph 64 % 0.00 in 299.0 W/m2 CLR
09:26 51.3 °F 39.1 °F 30.01 in NNE 0.2 mph 4.6 mph 63 % 0.00 in 255.0 W/m2 CLR
09:31 51.3 °F 39.1 °F 30.00 in NNE 0.3 mph 5.8 mph 63 % 0.00 in 214.0 W/m2 CLR
09:36 51.4 °F 39.2 °F 30.00 in NNE 2.6 mph 5.8 mph 63 % 0.00 in 195.0 W/m2 CLR
09:41 51.5 °F 38.9 °F 30.00 in NNE 1.7 mph 6.9 mph 62 % 0.00 in 204.0 W/m2 CLR
09:42 51.5 °F 38.9 °F 30.00 in NNE 1.8 mph 6.9 mph 62 % 0.00 in 206.0 W/m2 CLR
09:47 51.5 °F 38.5 °F 30.00 in NNE 1.0 mph 6.9 mph 61 % 0.00 in 232.0 W/m2 CLR
09:52 51.8 °F 39.2 °F 30.00 in NNE 1.7 mph 5.8 mph 62 % 0.00 in 229.0 W/m2 CLR
09:57 51.7 °F 38.7 °F 30.00 in Calm   5.8 mph 61 % 0.00 in 213.0 W/m2 CLR
10:02 51.8 °F 38.3 °F 30.00 in NNE 1.6 mph 5.8 mph 60 % 0.00 in 229.0 W/m2 CLR
10:07 51.9 °F 38.9 °F 30.00 in Calm   4.6 mph 61 % 0.00 in 230.0 W/m2 CLR
10:12 52.0 °F 38.5 °F 30.00 in Calm   3.5 mph 60 % 0.00 in 236.0 W/m2 CLR
10:17 52.0 °F 38.1 °F 30.00 in NNE 0.1 mph 3.5 mph 59 % 0.00 in 237.0 W/m2 CLR
10:22 52.4 °F 38.9 °F 30.00 in Calm   3.5 mph 60 % 0.00 in 267.0 W/m2 CLR
10:27 52.7 °F 38.3 °F 30.00 in Calm   3.5 mph 58 % 0.00 in 299.0 W/m2 CLR
10:32 52.8 °F 38.4 °F 30.00 in Calm   3.5 mph 58 % 0.00 in 315.0 W/m2 CLR
10:37 52.8 °F 38.4 °F 30.00 in Calm   2.3 mph 58 % 0.00 in 315.0 W/m2 CLR
10:42 53.1 °F 38.7 °F 30.00 in ENE 1.7 mph 2.3 mph 58 % 0.00 in 302.0 W/m2 CLR
10:47 53.0 °F 38.2 °F 30.00 in Calm   3.5 mph 57 % 0.00 in 288.0 W/m2 CLR
10:52 53.3 °F 39.3 °F 30.00 in Calm   3.5 mph 59 % 0.00 in 278.0 W/m2 CLR
10:53 53.3 °F 39.3 °F 30.00 in Calm   3.5 mph 59 % 0.00 in 278.0 W/m2 CLR
10:58 53.6 °F 38.7 °F 30.00 in NE 0.3 mph 2.3 mph 57 % 0.00 in 274.0 W/m2 CLR
11:03 53.5 °F 38.6 °F 29.99 in Calm   2.3 mph 57 % 0.00 in 278.0 W/m2 CLR
11:08 53.8 °F 39.4 °F 29.99 in Calm   2.3 mph 58 % 0.00 in 283.0 W/m2 CLR
11:13 54.0 °F 39.5 °F 29.99 in Calm   2.3 mph 58 % 0.00 in 281.0 W/m2 CLR
11:18 54.0 °F 39.1 °F 29.98 in Calm   2.3 mph 57 % 0.00 in 264.0 W/m2 CLR
11:23 54.0 °F 39.5 °F 29.98 in SE 0.1 mph 3.5 mph 58 % 0.00 in 248.0 W/m2 CLR
11:28 54.1 °F 39.2 °F 29.98 in Calm   3.5 mph 57 % 0.00 in 253.0 W/m2 CLR
11:33 54.3 °F 39.8 °F 29.98 in Calm   3.5 mph 58 % 0.00 in 260.0 W/m2 CLR
11:38 54.4 °F 39.9 °F 29.97 in Calm     58 % 0.00 in 255.0 W/m2 CLR
11:43 54.4 °F 39.9 °F 29.97 in Calm   3.5 mph 58 % 0.00 in 244.0 W/m2 CLR
11:48 54.5 °F 39.6 °F 29.97 in Calm   3.5 mph 57 % 0.00 in 237.0 W/m2 CLR
11:53 54.8 °F 40.3 °F 29.97 in Calm     58 % 0.00 in 241.0 W/m2 CLR
11:58 55.1 °F 40.6 °F 29.97 in Calm     58 % 0.00 in 232.0 W/m2 CLR
12:03 55.1 °F 40.6 °F 29.97 in Calm   3.5 mph 58 % 0.00 in 214.0 W/m2 CLR
12:08 55.1 °F 40.1 °F 29.97 in Calm   3.5 mph 57 % 0.00 in 209.0 W/m2 CLR
12:13 55.2 °F 40.2 °F 29.96 in Calm   3.5 mph 57 % 0.00 in 209.0 W/m2 CLR
12:18 55.3 °F 40.3 °F 29.97 in Calm   1.2 mph 57 % 0.00 in 225.0 W/m2 CLR
12:23 55.4 °F 40.0 °F 29.96 in Calm   1.2 mph 56 % 0.00 in 236.0 W/m2 CLR
12:32 55.7 °F 39.8 °F 29.97 in Calm     55 % 0.00 in 350.0 W/m2 OVC
12:37 56.1 °F 40.6 °F 29.96 in Calm     56 % 0.00 in 396.0 W/m2 CLR
12:42 56.6 °F 41.5 °F 29.96 in NE 0.9 mph 3.5 mph 57 % 0.00 in 571.0 W/m2 CLR
12:47 57.3 °F 41.3 °F 29.96 in NE 0.4 mph 3.5 mph 55 % 0.00 in 554.0 W/m2 CLR
12:52 57.4 °F 40.9 °F 29.96 in Calm   3.5 mph 54 % 0.00 in 529.0 W/m2 CLR
12:57 57.1 °F 40.1 °F 29.96 in NE 0.3 mph 3.5 mph 53 % 0.00 in 388.0 W/m2 CLR
13:02 57.0 °F 40.5 °F 29.96 in Calm   3.5 mph 54 % 0.00 in 401.0 W/m2 CLR
13:07 57.4 °F 40.4 °F 29.96 in NE 1.2 mph 2.3 mph 53 % 0.00 in 434.0 W/m2 CLR
13:12 57.4 °F 40.9 °F 29.96 in NE 0.2 mph 3.5 mph 54 % 0.00 in 436.0 W/m2 CLR
13:17 57.5 °F 40.5 °F 29.96 in SE 0.8 mph 3.5 mph 53 % 0.00 in 457.0 W/m2 CLR
13:22 57.3 °F 40.3 °F 29.95 in East 1.6 mph 5.8 mph 53 % 0.00 in 420.0 W/m2 CLR
13:28 57.5 °F 41.0 °F 29.95 in Calm   5.8 mph 54 % 0.00 in 413.0 W/m2 CLR
13:33 57.3 °F 39.8 °F 29.95 in ENE 0.8 mph 3.5 mph 52 % 0.00 in 397.0 W/m2 CLR
13:38 57.3 °F 40.3 °F 29.95 in Calm   4.6 mph 53 % 0.00 in 464.0 W/m2 CLR
13:43 57.4 °F 40.4 °F 29.95 in NNE 1.3 mph 5.8 mph 53 % 0.00 in 462.0 W/m2 CLR
13:48 57.8 °F 40.8 °F 29.95 in ENE 0.6 mph 5.8 mph 53 % 0.00 in 378.0 W/m2 CLR
13:53 57.6 °F 39.6 °F 29.95 in ENE 0.1 mph 4.6 mph 51 % 0.00 in 341.0 W/m2 CLR
13:58 57.6 °F 40.6 °F 29.95 in ENE 0.3 mph 3.5 mph 53 % 0.00 in 253.0 W/m2 CLR
14:03 57.4 °F 40.4 °F 29.95 in SSE 0.2 mph 3.5 mph 53 % 0.00 in 234.0 W/m2 CLR
14:08 57.1 °F 39.6 °F 29.95 in Calm   3.5 mph 52 % 0.00 in 243.0 W/m2 CLR
14:13 57.5 °F 40.5 °F 29.94 in Calm   3.5 mph 53 % 0.00 in 241.0 W/m2 CLR
14:18 57.2 °F 39.7 °F 29.95 in East 0.1 mph 3.5 mph 52 % 0.00 in 204.0 W/m2 CLR
14:23 57.4 °F 41.4 °F 29.95 in Calm   2.3 mph 55 % 0.00 in 232.0 W/m2 CLR
14:28 57.3 °F 40.3 °F 29.95 in Calm   3.5 mph 53 % 0.00 in 243.0 W/m2 CLR
14:33 57.4 °F 40.4 °F 29.95 in Calm   3.5 mph 53 % 0.00 in 225.0 W/m2 CLR
14:38 57.3 °F 40.3 °F 29.94 in Calm   2.3 mph 53 % 0.00 in 204.0 W/m2 CLR
14:43 57.4 °F 40.4 °F 29.95 in Calm   2.3 mph 53 % 0.00 in 197.0 W/m2 CLR
14:48 57.3 °F 40.8 °F 29.94 in Calm   1.2 mph 54 % 0.00 in 186.0 W/m2 CLR
14:53 57.5 °F 41.0 °F 29.94 in Calm   1.2 mph 54 % 0.00 in 190.0 W/m2 CLR
14:58 57.5 °F 41.0 °F 29.94 in Calm   3.5 mph 54 % 0.00 in 186.0 W/m2 CLR
15:03 57.6 °F 40.6 °F 29.94 in Calm   3.5 mph 53 % 0.00 in 186.0 W/m2 SCT
15:08 57.7 °F 41.2 °F 29.94 in NE 0.4 mph 3.5 mph 54 % 0.00 in 200.0 W/m2 SCT
15:13 57.6 °F 40.6 °F 29.95 in Calm   3.5 mph 53 % 0.00 in 253.0 W/m2 SCT
15:18 57.8 °F 41.3 °F 29.94 in Calm   2.3 mph 54 % 0.00 in 315.0 W/m2 SCT
15:23 58.0 °F 41.0 °F 29.95 in Calm   2.3 mph 53 % 0.00 in 311.0 W/m2 SCT
15:28 58.2 °F 40.6 °F 29.94 in SSE 0.2 mph 3.5 mph 52 % 0.00 in 288.0 W/m2 SCT
15:33 58.7 °F 40.6 °F 29.94 in South 0.5 mph 5.8 mph 51 % 0.00 in 262.0 W/m2 SCT
15:38 58.7 °F 41.6 °F 29.94 in Calm   5.8 mph 53 % 0.00 in 206.0 W/m2 SCT
15:44 58.1 °F 41.0 °F 29.94 in Calm   5.8 mph 53 % 0.00 in 158.0 W/m2 SCT
15:49 57.8 °F 40.3 °F 29.94 in Calm     52 % 0.00 in 139.0 W/m2 SCT
15:54 58.0 °F 41.0 °F 29.95 in Calm     53 % 0.00 in 118.0 W/m2 SCT
15:59 58.0 °F 41.0 °F 29.95 in Calm     53 % 0.00 in 111.0 W/m2 SCT
16:04 58.0 °F 40.5 °F 29.95 in Calm     52 % 0.00 in 139.0 W/m2 BKN
16:09 58.4 °F 41.3 °F 29.95 in Calm     53 % 0.00 in 199.0 W/m2 BKN
16:14 58.3 °F 41.2 °F 29.95 in Calm   1.2 mph 53 % 0.00 in 236.0 W/m2 BKN
16:19 58.1 °F 41.0 °F 29.95 in Calm   1.2 mph 53 % 0.00 in 234.0 W/m2 BKN
16:24 58.1 °F 41.0 °F 29.95 in Calm     53 % 0.00 in 193.0 W/m2 BKN
16:25 58.1 °F 41.5 °F 29.95 in Calm     54 % 0.00 in 171.0 W/m2 BKN
16:30 58.1 °F 41.5 °F 29.95 in Calm   3.5 mph 54 % 0.00 in 141.0 W/m2 BKN
16:35 58.0 °F 41.0 °F 29.95 in NE 0.2 mph 3.5 mph 53 % 0.00 in 132.0 W/m2 BKN
16:40 58.0 °F 41.4 °F 29.95 in Calm   2.3 mph 54 % 0.00 in 116.0 W/m2 BKN
16:45 58.0 °F 41.9 °F 29.95 in Calm   2.3 mph 55 % 0.00 in 146.0 W/m2 BKN
16:50 57.9 °F 42.8 °F 29.95 in Calm     57 % 0.00 in 190.0 W/m2 BKN
16:55 57.9 °F 43.2 °F 29.95 in Calm   3.5 mph 58 % 0.00 in 195.0 W/m2 BKN
17:00 57.8 °F 43.6 °F 29.95 in Calm   3.5 mph 59 % 0.00 in 181.0 W/m2 BKN
17:05 57.6 °F 42.9 °F 29.95 in Calm   2.3 mph 58 % 0.00 in 169.0 W/m2 CLR
17:10 57.7 °F 42.6 °F 29.95 in Calm     57 % 0.00 in 160.0 W/m2 CLR
17:15 57.6 °F 41.5 °F 29.95 in Calm   1.2 mph 55 % 0.00 in 183.0 W/m2 CLR
17:20 57.8 °F 42.2 °F 29.95 in Calm   1.2 mph 56 % 0.00 in 174.0 W/m2 CLR
17:25 58.1 °F 42.5 °F 29.96 in Calm     56 % 0.00 in 149.0 W/m2 CLR
17:30 57.5 °F 45.4 °F 29.95 in SSW 0.9 mph 5.8 mph 64 % 0.00 in 151.0 W/m2 CLR
17:35 57.0 °F 45.3 °F 29.96 in SSW 4.1 mph 5.8 mph 65 % 0.00 in 165.0 W/m2 CLR
17:40 56.7 °F 45.5 °F 29.96 in SSW 2.1 mph 4.6 mph 66 % 0.00 in 188.0 W/m2 CLR
17:45 56.7 °F 45.9 °F 29.95 in SSW 2.1 mph 4.6 mph 67 % 0.00 in 179.0 W/m2 CLR
17:50 56.6 °F 46.2 °F 29.95 in SW 3.3 mph 3.5 mph 68 % 0.00 in 179.0 W/m2 CLR
17:55 56.7 °F 46.3 °F 29.96 in WSW 2.6 mph 4.6 mph 68 % 0.00 in 139.0 W/m2 CLR
18:00 56.5 °F 46.1 °F 29.96 in SW 1.1 mph 4.6 mph 68 % 0.00 in 132.0 W/m2 CLR
18:05 56.3 °F 46.3 °F 29.96 in Calm   4.6 mph 69 % 0.00 in 120.0 W/m2 CLR
18:10 56.1 °F 46.1 °F 29.96 in SW 2.3 mph 4.6 mph 69 % 0.00 in 105.0 W/m2 CLR
18:15 55.9 °F 46.3 °F 29.96 in SW 2.4 mph 6.9 mph 70 % 0.00 in 104.0 W/m2 CLR
18:20 55.8 °F 46.2 °F 29.96 in SW 0.8 mph 6.9 mph 70 % 0.00 in 130.0 W/m2 CLR
18:25 55.8 °F 46.2 °F 29.96 in WSW 3.2 mph 4.6 mph 70 % 0.00 in 148.0 W/m2 CLR
18:30 55.8 °F 46.5 °F 29.96 in WSW 1.0 mph 4.6 mph 71 % 0.00 in 134.0 W/m2 CLR
18:35 56.0 °F 46.7 °F 29.97 in WSW 1.2 mph 4.6 mph 71 % 0.00 in 123.0 W/m2 CLR
18:40 56.0 °F 46.4 °F 29.97 in WSW 1.4 mph 3.5 mph 70 % 0.00 in 113.0 W/m2 CLR
18:45 55.9 °F 46.6 °F 29.97 in Calm   3.5 mph 71 % 0.00 in 100.0 W/m2 CLR
18:50 56.0 °F 46.7 °F 29.97 in Calm   3.5 mph 71 % 0.00 in 74.0 W/m2 CLR
18:55 56.1 °F 46.8 °F 29.97 in Calm   1.2 mph 71 % 0.00 in 69.0 W/m2 CLR
19:00 55.8 °F 46.2 °F 29.97 in WSW 0.4 mph 3.5 mph 70 % 0.00 in 65.0 W/m2 CLR
19:06 55.8 °F 46.5 °F 29.97 in Calm   3.5 mph 71 % 0.00 in 54.0 W/m2 CLR
19:11 55.6 °F 46.7 °F 29.97 in WSW 0.8 mph 3.5 mph 72 % 0.00 in 32.0 W/m2 CLR
19:16 55.4 °F 46.5 °F 29.97 in WSW 2.4 mph 3.5 mph 72 % 0.00 in 21.0 W/m2 CLR
19:21 55.2 °F 46.3 °F 29.97 in WSW 0.3 mph 3.5 mph 72 % 0.00 in 19.0 W/m2 CLR
19:26 55.1 °F 46.6 °F 29.97 in Calm   3.5 mph 73 % 0.00 in 21.0 W/m2 CLR
19:31 54.9 °F 46.4 °F 29.97 in WSW 1.3 mph 3.5 mph 73 % 0.00 in 25.0 W/m2 CLR
19:36 54.7 °F 46.6 °F 29.97 in Calm   3.5 mph 74 % 0.00 in 23.0 W/m2 CLR
19:41 54.6 °F 46.5 °F 29.98 in Calm   3.5 mph 74 % 0.00 in 19.0 W/m2 CLR
19:46 54.5 °F 46.7 °F 29.98 in Calm   2.3 mph 75 % 0.00 in 16.0 W/m2 CLR
19:51 54.4 °F 46.6 °F 29.98 in Calm   2.3 mph 75 % 0.00 in 11.0 W/m2 CLR
19:56 54.2 °F 46.4 °F 29.98 in Calm     75 % 0.00 in 7.0 W/m2 CLR
20:01 54.0 °F 46.6 °F 29.98 in WSW 1.7 mph 3.5 mph 76 % 0.00 in 7.0 W/m2 CLR
20:06 54.0 °F 46.6 °F 29.98 in Calm   3.5 mph 76 % 0.00 in 0.0 W/m2 CLR
20:11 54.0 °F 46.6 °F 29.99 in Calm   3.5 mph 76 % 0.00 in 0.0 W/m2 CLR
20:16 53.8 °F 46.8 °F 29.99 in Calm   3.5 mph 77 % 0.00 in 0.0 W/m2 CLR
20:21 53.5 °F 46.5 °F 29.99 in WSW 1.1 mph 3.5 mph 77 % 0.00 in 0.0 W/m2 CLR
20:26 53.3 °F 46.6 °F 29.99 in Calm   3.5 mph 78 % 0.00 in 0.0 W/m2 CLR
20:31 53.2 °F 46.5 °F 29.99 in Calm   3.5 mph 78 % 0.00 in 0.0 W/m2 CLR
20:36 53.0 °F 46.7 °F 29.99 in Calm   3.5 mph 79 % 0.00 in 0.0 W/m2 CLR
20:41 53.0 °F 47.0 °F 29.99 in Calm   3.5 mph 80 % 0.00 in 0.0 W/m2 CLR
20:46 52.9 °F 46.9 °F 30.00 in Calm     80 % 0.00 in 0.0 W/m2 CLR
20:51 52.7 °F 46.7 °F 29.99 in Calm     80 % 0.00 in 0.0 W/m2 CLR
20:56 52.6 °F 46.6 °F 29.99 in Calm     80 % 0.00 in 0.0 W/m2 CLR
21:01 52.5 °F 46.5 °F 29.99 in Calm     80 % 0.00 in 0.0 W/m2 CLR
21:02 52.5 °F 46.5 °F 29.99 in Calm     80 % 0.00 in 0.0 W/m2 CLR
21:07 52.3 °F 46.6 °F 30.00 in Calm     81 % 0.00 in 0.0 W/m2 CLR
21:12 52.1 °F 46.4 °F 30.00 in Calm     81 % 0.00 in 0.0 W/m2 CLR
21:17 52.0 °F 46.3 °F 30.00 in Calm     81 % 0.00 in 0.0 W/m2 CLR
21:22 52.0 °F 46.3 °F 30.00 in Calm     81 % 0.00 in 0.0 W/m2 CLR
21:27 51.8 °F 46.2 °F 30.01 in Calm     81 % 0.00 in 0.0 W/m2 CLR
21:32 51.7 °F 46.1 °F 30.02 in Calm     81 % 0.00 in 0.0 W/m2 CLR
21:37 51.6 °F 46.3 °F 30.02 in Calm     82 % 0.00 in 0.0 W/m2 CLR
21:42 51.6 °F 46.3 °F 30.02 in Calm     82 % 0.00 in 0.0 W/m2 CLR
21:47 51.5 °F 46.2 °F 30.02 in Calm     82 % 0.00 in 0.0 W/m2 CLR
21:49 51.5 °F 46.2 °F 30.02 in Calm     82 % 0.00 in 0.0 W/m2 CLR
21:54 51.4 °F 46.1 °F 30.02 in Calm     82 % 0.00 in 0.0 W/m2 CLR
21:59 51.3 °F 46.0 °F 30.02 in Calm     82 % 0.00 in 0.0 W/m2 CLR
22:04 51.2 °F 46.2 °F 30.02 in Calm     83 % 0.00 in 0.0 W/m2 CLR
22:09 51.2 °F 46.2 °F 30.02 in Calm     83 % 0.00 in 0.0 W/m2 CLR
22:14 51.1 °F 46.1 °F 30.02 in Calm     83 % 0.00 in 0.0 W/m2 CLR
22:19 50.9 °F 46.2 °F 30.02 in Calm     84 % 0.00 in 0.0 W/m2 CLR
22:24 50.8 °F 46.1 °F 30.02 in Calm     84 % 0.00 in 0.0 W/m2 CLR
22:29 50.5 °F 45.8 °F 30.02 in Calm     84 % 0.00 in 0.0 W/m2 CLR
22:34 50.0 °F 45.7 °F 30.02 in Calm     85 % 0.00 in 0.0 W/m2 CLR
22:39 49.8 °F 45.8 °F 30.03 in Calm     86 % 0.00 in 0.0 W/m2 CLR
22:44 49.6 °F 45.6 °F 30.02 in Calm     86 % 0.00 in 0.0 W/m2 CLR
22:49 49.4 °F 45.4 °F 30.02 in Calm     86 % 0.00 in 0.0 W/m2 CLR
22:54 49.3 °F 45.6 °F 30.02 in Calm     87 % 0.00 in 0.0 W/m2 CLR
22:56 49.3 °F 45.6 °F 30.03 in Calm     87 % 0.00 in 0.0 W/m2 CLR
23:01 49.2 °F 45.5 °F 30.02 in Calm     87 % 0.00 in 0.0 W/m2 CLR
23:06 49.0 °F 45.3 °F 30.02 in Calm     87 % 0.00 in 0.0 W/m2 CLR
23:11 49.1 °F 45.7 °F 30.02 in Calm     88 % 0.00 in 0.0 W/m2 CLR
23:16 49.0 °F 45.6 °F 30.03 in Calm     88 % 0.00 in 0.0 W/m2 CLR
23:21 49.0 °F 45.6 °F 30.03 in Calm     88 % 0.00 in 0.0 W/m2 CLR
23:26 49.0 °F 45.6 °F 30.03 in Calm     88 % 0.00 in 0.0 W/m2 CLR
23:31 49.0 °F 45.6 °F 30.03 in Calm     88 % 0.00 in 0.0 W/m2 CLR
23:36 49.0 °F 45.6 °F 30.03 in Calm     88 % 0.00 in 0.0 W/m2 CLR
23:41 49.1 °F 45.7 °F 30.03 in Calm     88 % 0.00 in 0.0 W/m2 CLR
23:46 49.2 °F 45.8 °F 30.03 in Calm     88 % 0.00 in 0.0 W/m2 CLR
23:51 49.2 °F 45.8 °F 30.03 in Calm     88 % 0.00 in 0.0 W/m2 CLR
23:56 49.2 °F 46.1 °F 30.03 in Calm     89 % 0.00 in 0.0 W/m2 CLR
Air Products Campus Weather
Compliments of Weather Underground - 3.5 mb